Time;durP1;ratioP1;P1;durP2;ratioP2;P2;SDS_P1;SDS_P2;PMS_P1;PMS_P2;Temp;Humidity;BMP_temperature;BMP_pressure;BME280_temperature;BME280_humidity;BME280_pressure;Samples;Min_cycle;Max_cycle;Signal;HPM_P1;HPM_P2
2022/02/26 10:38:08;;;;;;;;;;;4.00;70.10;;;;;;6163645;22;1492585;-52
2022/02/26 10:40:46;;;;;;;;;;;4.00;70.30;;;;;;6230692;22;82350;-59
2022/02/26 10:43:53;;;;;;;;;;;4.20;68.60;;;;;;5017227;27;2030892;-49
2022/02/26 10:46:22;;;;;;;;;;;4.40;69.10;;;;;;5087116;27;81091;-58
2022/02/26 10:48:49;;;;;;;;;;;4.40;68.20;;;;;;5085779;27;81206;-53
2022/02/26 10:51:19;;;;;;;;;;;4.40;67.70;;;;;;5087167;27;80182;-59
2022/02/26 10:53:45;;;;;;;;;;;4.50;67.70;;;;;;5087354;27;80017;-55
2022/02/26 10:56:11;;;;;;;;;;;4.50;67.30;;;;;;5086509;27;81185;-53
2022/02/26 10:58:37;;;;;;;;;;;4.60;66.70;;;;;;5086342;27;81905;-55
2022/02/26 11:01:03;;;;;;;;;;;4.50;67.80;;;;;;5086652;27;80049;-56
2022/02/26 11:03:29;;;;;;;;;;;4.50;68.60;;;;;;5086470;27;80687;-56
2022/02/26 11:05:55;;;;;;;;;;;4.50;68.50;;;;;;5086203;27;81297;-54
2022/02/26 11:08:21;;;;;;;;;;;4.60;68.10;;;;;;5086388;27;82147;-55
2022/02/26 11:10:48;;;;;;;;;;;4.60;68.70;;;;;;5086389;27;80325;-53
2022/02/26 11:13:14;;;;;;;;;;;4.60;68.70;;;;;;5086259;27;80673;-55
2022/02/26 11:15:41;;;;;;;;;;;4.70;69.00;;;;;;5086104;27;80393;-56
2022/02/26 11:18:09;;;;;;;;;;;4.60;68.50;;;;;;5086026;27;81692;-56
2022/02/26 11:20:35;;;;;;;;;;;4.70;68.90;;;;;;5086060;27;80342;-57
2022/02/26 11:23:01;;;;;;;;;;;4.70;69.40;;;;;;5085837;27;81801;-56
2022/02/26 11:25:27;;;;;;;;;;;4.70;69.00;;;;;;5085902;27;81386;-55
2022/02/26 11:27:53;;;;;;;;;;;4.70;69.00;;;;;;5085395;27;80021;-54
2022/02/26 11:30:27;;;;;;;;;;;4.60;68.90;;;;;;5086104;27;80229;-54
2022/02/26 11:32:53;;;;;;;;;;;4.70;69.00;;;;;;5086070;27;80611;-56
2022/02/26 11:35:24;;;;;;;;;;;4.70;69.40;;;;;;5085783;27;81108;-54
2022/02/26 11:37:51;;;;;;;;;;;4.70;68.80;;;;;;5085546;27;81091;-56
2022/02/26 11:40:17;;;;;;;;;;;4.70;69.30;;;;;;5085767;27;80314;-57
2022/02/26 11:42:43;;;;;;;;;;;4.80;69.10;;;;;;5085241;27;81676;-57
2022/02/26 11:45:10;;;;;;;;;;;4.80;68.70;;;;;;5085491;27;80229;-57
2022/02/26 11:47:43;;;;;;;;;;;4.80;68.60;;;;;;5085465;27;80853;-56
2022/02/26 11:50:18;;;;;;;;;;;4.80;68.40;;;;;;5085577;27;81139;-57
2022/02/26 11:52:49;;;;;;;;;;;4.80;69.10;;;;;;5085498;27;80866;-56
2022/02/26 11:55:22;;;;;;;;;;;4.80;68.80;;;;;;5072421;27;80177;-56
2022/02/26 11:57:48;;;;;;;;;;;4.70;69.10;;;;;;5071730;27;81018;-57
2022/02/26 12:00:15;;;;;;;;;;;4.80;69.10;;;;;;5071759;27;81126;-57
2022/02/26 12:02:41;;;;;;;;;;;4.80;68.80;;;;;;5072002;27;80735;-58
2022/02/26 12:05:08;;;;;;;;;;;4.80;69.00;;;;;;5071933;27;80151;-65
2022/02/26 12:07:45;;;;;;;;;;;4.90;69.20;;;;;;5071901;27;81051;-56
2022/02/26 12:10:11;;;;;;;;;;;4.80;68.40;;;;;;5071862;27;80405;-58
2022/02/26 12:12:38;;;;;;;;;;;4.90;68.60;;;;;;5071727;27;79966;-59
2022/02/26 12:15:05;;;;;;;;;;;4.90;68.20;;;;;;5071508;27;80905;-59
2022/02/26 12:17:30;;;;;;;;;;;5.00;67.90;;;;;;5071348;27;82859;-56
2022/02/26 12:19:56;;;;;;;;;;;5.00;68.40;;;;;;5071397;27;81219;-59
2022/02/26 12:22:22;;;;;;;;;;;5.00;68.40;;;;;;5071174;27;81922;-59
2022/02/26 12:24:48;;;;;;;;;;;5.00;68.70;;;;;;5071408;27;80341;-57
2022/02/26 12:27:14;;;;;;;;;;;5.00;68.30;;;;;;5071349;27;80925;-59
2022/02/26 12:29:42;;;;;;;;;;;5.00;68.00;;;;;;5070958;27;80063;-57
2022/02/26 12:32:18;;;;;;;;;;;5.00;68.60;;;;;;5071280;27;81860;-58
2022/02/26 12:35:03;;;;;;;;;;;5.00;67.60;;;;;;5071232;27;80927;-56
2022/02/26 12:37:33;;;;;;;;;;;5.10;67.60;;;;;;5071062;27;81138;-58
2022/02/26 12:40:03;;;;;;;;;;;5.10;67.00;;;;;;5071441;27;81237;-55
2022/02/26 12:42:30;;;;;;;;;;;5.20;67.00;;;;;;5070545;27;82118;-55
2022/02/26 12:44:57;;;;;;;;;;;5.20;66.90;;;;;;5071245;27;80272;-56
2022/02/26 12:47:24;;;;;;;;;;;5.10;67.40;;;;;;5071137;27;81217;-59
2022/02/26 12:49:50;;;;;;;;;;;5.20;67.40;;;;;;5071175;27;80224;-58
2022/02/26 12:52:16;;;;;;;;;;;5.20;67.30;;;;;;5071113;27;80631;-57
2022/02/26 12:54:42;;;;;;;;;;;5.20;66.70;;;;;;5071067;27;80308;-58
2022/02/26 12:57:08;;;;;;;;;;;5.20;66.60;;;;;;5070760;27;81824;-58
2022/02/26 12:59:34;;;;;;;;;;;5.30;66.10;;;;;;5070920;27;80362;-59
2022/02/26 13:02:00;;;;;;;;;;;5.30;65.70;;;;;;5070654;27;80728;-59
2022/02/26 13:04:28;;;;;;;;;;;5.30;65.60;;;;;;5071113;27;80697;-56
2022/02/26 13:06:56;;;;;;;;;;;5.30;65.50;;;;;;5069504;27;81768;-57
2022/02/26 13:09:22;;;;;;;;;;;5.30;65.10;;;;;;5070633;27;81254;-59
2022/02/26 13:11:48;;;;;;;;;;;5.40;65.50;;;;;;5070569;27;81799;-58
2022/02/26 13:14:14;;;;;;;;;;;5.40;65.80;;;;;;5070503;27;81342;-58
2022/02/26 13:16:42;;;;;;;;;;;5.40;65.50;;;;;;5070820;27;79959;-58
2022/02/26 13:19:08;;;;;;;;;;;5.40;66.00;;;;;;5070403;27;81120;-53
2022/02/26 13:21:35;;;;;;;;;;;5.40;66.70;;;;;;5070399;27;80913;-62
2022/02/26 13:24:02;;;;;;;;;;;5.40;65.70;;;;;;5070296;27;80407;-54
2022/02/26 13:26:27;;;;;;;;;;;5.40;66.10;;;;;;5070015;27;80660;-61
2022/02/26 13:28:56;;;;;;;;;;;5.50;64.40;;;;;;5070457;27;80732;-64
2022/02/26 13:31:30;;;;;;;;;;;5.50;63.10;;;;;;5070871;27;80661;-64
2022/02/26 13:34:15;;;;;;;;;;;5.50;61.20;;;;;;5071154;27;80492;-61
2022/02/26 13:36:41;;;;;;;;;;;6.80;57.80;;;;;;5070756;27;81716;-67
2022/02/26 13:39:07;;;;;;;;;;;8.00;53.20;;;;;;5070926;27;80327;-64
2022/02/26 13:41:33;;;;;;;;;;;8.60;51.10;;;;;;5070805;27;80745;-68
2022/02/26 13:43:59;;;;;;;;;;;;;;;;;;5070708;27;81099;-75
2022/02/26 13:46:27;;;;;;;;;;;;;;;;;;5071012;27;80483;-63
2022/02/26 13:48:53;;;;;;;;;;;;;;;;;;5070748;27;79907;-61
2022/02/26 13:51:19;;;;;;;;;;;;;;;;;;5070264;27;80712;-62
2022/02/26 13:53:45;;;;;;;;;;;;;;;;;;5070584;27;79910;-64
2022/02/26 13:56:11;;;;;;;;;;;;;;;;;;5069974;27;80081;-60
2022/02/26 13:58:37;;;;;;;;;;;;;;;;;;5070233;27;80832;-64
2022/02/26 14:01:03;;;;;;;;;;;;;;;;;;5070025;27;81140;-63
2022/02/26 14:03:29;;;;;;;;;;;;;;;;;;5069826;27;81829;-63
2022/02/26 14:05:55;;;;;;;;;;;;;;;;;;5070032;27;80884;-64
2022/02/26 14:08:21;;;;;;;;;;;;;;;;;;5070152;27;80032;-63
2022/02/26 14:10:47;;;;;;;;;;;;;;;;;;5069826;27;81772;-63
2022/02/26 14:13:13;;;;;;;;;;;;;;;;;;5070194;27;80051;-63
2022/02/26 14:15:39;;;;;;;;;;;;;;;;;;5069846;27;81498;-63
2022/02/26 14:18:05;;;;;;;;;;;;;;;;;;5069732;27;80105;-62
2022/02/26 14:20:30;;;;;;;;;;;;;;;;;;5069765;27;81581;-63
2022/02/26 14:22:56;;;;;;;;;;;;;;;;;;5069683;27;80332;-64
2022/02/26 14:25:22;;;;;;;;;;;;;;;;;;5070088;27;80715;-63
2022/02/26 14:27:48;;;;;;;;;;;;;;;;;;5070035;27;80041;-62
2022/02/26 14:30:14;;;;;;;;;;;;;;;;;;5069719;27;81643;-62
2022/02/26 14:32:40;;;;;;;;;;;;;;;;;;5069591;27;80807;-63
2022/02/26 14:35:06;;;;;;;;;;;;;;;;;;5069636;27;80828;-63
2022/02/26 14:37:32;;;;;;;;;;;;;;;;;;5069521;27;80950;-63
2022/02/26 14:39:58;;;;;;;;;;;;;;;;;;5069443;27;81703;-63
2022/02/26 14:42:24;;;;;;;;;;;;;;;;;;5069252;27;80034;-63
2022/02/26 14:44:50;;;;;;;;;;;;;;;;;;5069439;27;81779;-63
2022/02/26 14:47:16;;;;;;;;;;;;;;;;;;5069773;27;79986;-63
2022/02/26 14:49:42;;;;;;;;;;;;;;;;;;5067819;27;82145;-63
2022/02/26 14:52:08;;;;;;;;;;;;;;;;;;5068260;27;81794;-63
2022/02/26 14:54:34;;;;;;;;;;;;;;;;;;5067937;27;81628;-63
2022/02/26 14:57:00;;;;;;;;;;;;;;;;;;5229376;22;82153;-63
2022/02/26 15:00:23;;;;;;;;;;;;;;;;;;5067465;27;80160;-61
2022/02/26 15:02:48;;;;;;;;;;;;;;;;;;5066554;27;79940;-61
2022/02/26 15:05:14;;;;;;;;;;;;;;;;;;5066297;27;80672;-62
2022/02/26 15:07:40;;;;;;;;;;;;;;;;;;5066707;27;79981;-62
2022/02/26 15:10:06;;;;;;;;;;;;;;;;;;5055795;27;81866;-61
2022/02/26 15:12:44;;;;;;;;;;;;;;;;;;5068703;27;79938;-61
2022/02/26 15:15:10;;;;;;;;;;;;;;;;;;5068383;27;80496;-62
2022/02/26 15:17:36;;;;;;;;;;;;;;;;;;5067835;27;80047;-62
2022/02/26 15:20:03;;;;;;;;;;;;;;;;;;5067945;27;80644;-62
2022/02/26 15:22:29;;;;;;;;;;;;;;;;;;5067658;27;80104;-62
2022/02/26 15:24:55;;;;;;;;;;;;;;;;;;5067823;27;80848;-63
2022/02/26 15:27:21;;;;;;;;;;;;;;;;;;5067844;27;80035;-63
2022/02/26 15:29:47;;;;;;;;;;;;;;;;;;5067730;27;80117;-62
2022/02/26 15:32:13;;;;;;;;;;;;;;;;;;5070202;27;79995;-62
2022/02/26 15:34:39;;;;;;;;;;;;;;;;;;5067633;27;80005;-61
2022/02/26 15:37:05;;;;;;;;;;;;;;;;;;5067466;27;80885;-62
2022/02/26 15:39:30;;;;;;;;;;;;;;;;;;5067342;27;81904;-61
2022/02/26 15:41:56;;;;;;;;;;;;;;;;;;5067457;27;80075;-63
2022/02/26 15:44:22;;;;;;;;;;;;;;;;;;5067748;27;80052;-61
2022/02/26 15:46:48;;;;;;;;;;;;;;;;;;5067319;27;80640;-60
2022/02/26 15:49:14;;;;;;;;;;;;;;;;;;5067299;27;80073;-64
2022/02/26 15:51:40;;;;;;;;;;;;;;;;;;5067405;27;80088;-60
2022/02/26 15:54:06;;;;;;;;;;;;;;;;;;5069703;27;81634;-60
2022/02/26 15:56:33;;;;;;;;;;;;;;;;;;5067229;27;80130;-59
2022/02/26 15:58:59;;;;;;;;;;;;;;;;;;5067095;27;81495;-61
2022/02/26 16:01:25;;;;;;;;;;;;;;;;;;5067321;27;80153;-61
2022/02/26 16:03:50;;;;;;;;;;;;;;;;;;5067029;27;80738;-62
2022/02/26 16:06:16;;;;;;;;;;;;;;;;;;5067163;27;80595;-61
2022/02/26 16:08:42;;;;;;;;;;;;;;;;;;5067411;27;80140;-62
2022/02/26 16:11:08;;;;;;;;;;;;;;;;;;5066883;27;80097;-59
2022/02/26 16:13:34;;;;;;;;;;;;;;;;;;5067026;27;81007;-60
2022/02/26 16:16:00;;;;;;;;;;;;;;;;;;5069682;27;80145;-61
2022/02/26 16:18:26;;;;;;;;;;;;;;;;;;5066704;27;80826;-61
2022/02/26 16:20:53;;;;;;;;;;;;;;;;;;5067109;27;80198;-60
2022/02/26 16:23:19;;;;;;;;;;;;;;;;;;5057501;27;80130;-61
2022/02/26 16:25:45;;;;;;;;;;;;;;;;;;5053024;28;81520;-62
2022/02/26 16:28:11;;;;;;;;;;;;;;;;;;5053128;28;80051;-60
2022/02/26 16:30:37;;;;;;;;;;;;;;;;;;5053237;28;80094;-61
2022/02/26 16:33:03;;;;;;;;;;;;;;;;;;5052987;28;82011;-61
2022/02/26 16:35:29;;;;;;;;;;;;;;;;;;5053289;28;80092;-61
2022/02/26 16:37:55;;;;;;;;;;;;;;;;;;5055907;28;80145;-61
2022/02/26 16:40:21;;;;;;;;;;;;;;;;;;5052836;28;80149;-60
2022/02/26 16:42:47;;;;;;;;;;;;;;;;;;5053165;28;80074;-62
2022/02/26 16:45:12;;;;;;;;;;;;;;;;;;5052642;28;80875;-61
2022/02/26 16:47:38;;;;;;;;;;;;;;;;;;5052824;28;80082;-62
2022/02/26 16:50:04;;;;;;;;;;;;;;;;;;5052926;28;80814;-61
2022/02/26 16:52:30;;;;;;;;;;;;;;;;;;5052891;28;81853;-62
2022/02/26 16:54:56;;;;;;;;;;;;;;;;;;5052754;28;80094;-62
2022/02/26 16:57:22;;;;;;;;;;;;;;;;;;5052743;28;80074;-61
2022/02/26 16:59:48;;;;;;;;;;;;;;;;;;5055211;28;81515;-62
2022/02/26 17:02:16;;;;;;;;;;;;;;;;;;5052683;28;81101;-62
2022/02/26 17:04:42;;;;;;;;;;;;;;;;;;5052581;28;81859;-62
2022/02/26 17:07:08;;;;;;;;;;;;;;;;;;5052518;28;80033;-61
2022/02/26 17:09:34;;;;;;;;;;;;;;;;;;5052463;28;80990;-59
2022/02/26 17:12:00;;;;;;;;;;;;;;;;;;5052155;28;80684;-61
2022/02/26 17:14:25;;;;;;;;;;;;;;;;;;5052347;28;80118;-62
2022/02/26 17:16:51;;;;;;;;;;;;;;;;;;5052449;28;80080;-62
2022/02/26 17:19:17;;;;;;;;;;;;;;;;;;5052385;28;80695;-60
2022/02/26 17:21:43;;;;;;;;;;;;;;;;;;5055030;28;80077;-64
2022/02/26 17:24:10;;;;;;;;;;;;;;;;;;5052081;28;81656;-62
2022/02/26 17:26:36;;;;;;;;;;;;;;;;;;5052391;28;80093;-62
2022/02/26 17:29:05;;;;;;;;;;;;;;;;;;5052493;28;80512;-61
2022/02/26 17:31:31;;;;;;;;;;;;;;;;;;5051866;28;80669;-62
2022/02/26 17:33:58;;;;;;;;;;;;;;;;;;5051499;27;80134;-62
2022/02/26 17:36:24;;;;;;;;;;;;;;;;;;5051851;28;80071;-61
2022/02/26 17:38:50;;;;;;;;;;;;;;;;;;5051762;28;80912;-62
2022/02/26 17:41:15;;;;;;;;;;;;;;;;;;5054654;28;80258;-61
2022/02/26 17:43:41;;;;;;;;;;;;;;;;;;5051797;28;80625;-62
2022/02/26 17:46:07;;;;;;;;;;;;;;;;;;5052058;28;80062;-62
2022/02/26 17:48:33;;;;;;;;;;;;;;;;;;5051977;28;79985;-62
2022/02/26 17:50:59;;;;;;;;;;;;;;;;;;5051767;28;81538;-61
2022/02/26 17:53:25;;;;;;;;;;;;;;;;;;5051742;28;80160;-62
2022/02/26 17:55:51;;;;;;;;;;;;;;;;;;5052086;28;80099;-62
2022/02/26 17:58:17;;;;;;;;;;;;;;;;;;5051577;28;81824;-61
2022/02/26 18:00:43;;;;;;;;;;;;;;;;;;5051612;28;80250;-61
2022/02/26 18:03:08;;;;;;;;;;;;;;;;;;5054235;28;80153;-63
2022/02/26 18:05:34;;;;;;;;;;;;;;;;;;5051866;28;80110;-64
2022/02/26 18:08:00;;;;;;;;;;;;;;;;;;5051562;28;80874;-61
2022/02/26 18:10:26;;;;;;;;;;;;;;;;;;5050841;28;81649;-62
2022/02/26 18:12:52;;;;;;;;;;;;;;;;;;5051410;28;80100;-62
2022/02/26 18:15:18;;;;;;;;;;;;;;;;;;5051665;28;80084;-62
2022/02/26 18:17:44;;;;;;;;;;;;;;;;;;5051236;28;81919;-62
2022/02/26 18:20:11;;;;;;;;;;;;;;;;;;5051332;28;80039;-62
2022/02/26 18:22:37;;;;;;;;;;;;;;;;;;5051348;28;80857;-62
2022/02/26 18:25:03;;;;;;;;;;;;;;;;;;5054120;28;80634;-62
2022/02/26 18:27:29;;;;;;;;;;;;;;;;;;5051368;28;80976;-62
2022/02/26 18:29:55;;;;;;;;;;;;;;;;;;5051097;28;81781;-61
2022/02/26 18:32:21;;;;;;;;;;;;;;;;;;5051086;28;80119;-62
2022/02/26 18:34:47;;;;;;;;;;;;;;;;;;5051164;28;80817;-62
2022/02/26 18:37:14;;;;;;;;;;;;;;;;;;5051108;28;80764;-62
2022/02/26 18:39:40;;;;;;;;;;;;;;;;;;5051112;28;80106;-62
2022/02/26 18:42:06;;;;;;;;;;;;;;;;;;5051199;28;80130;-62
2022/02/26 18:44:32;;;;;;;;;;;;;;;;;;5050871;28;81654;-62
2022/02/26 18:46:58;;;;;;;;;;;;;;;;;;5053678;28;80169;-64
2022/02/26 18:49:24;;;;;;;;;;;;;;;;;;5050924;28;81691;-63
2022/02/26 18:51:50;;;;;;;;;;;;;;;;;;5050821;28;80165;-63
2022/02/26 18:54:15;;;;;;;;;;;;;;;;;;5050848;28;80731;-62
2022/02/26 18:56:41;;;;;;;;;;;;;;;;;;5050610;28;81582;-62
2022/02/26 18:59:07;;;;;;;;;;;;;;;;;;5050738;28;80172;-62
2022/02/26 19:01:33;;;;;;;;;;;;;;;;;;5050961;28;80620;-63
2022/02/26 19:03:59;;;;;;;;;;;;;;;;;;5050904;28;80583;-63
2022/02/26 19:06:25;;;;;;;;;;;;;;;;;;5050720;28;80019;-64
2022/02/26 19:08:51;;;;;;;;;;;;;;;;;;5053228;28;80821;-62
2022/02/26 19:11:17;;;;;;;;;;;;;;;;;;5049954;28;80098;-63
2022/02/26 19:13:43;;;;;;;;;;;;;;;;;;5050692;28;80188;-63
2022/02/26 19:16:08;;;;;;;;;;;;;;;;;;5049386;28;82262;-62
2022/02/26 19:18:34;;;;;;;;;;;;;;;;;;5049845;28;81058;-64
2022/02/26 19:21:00;;;;;;;;;;;;;;;;;;5049467;28;81902;-64
2022/02/26 19:23:28;;;;;;;;;;;;;;;;;;5049134;28;82437;-64
2022/02/26 19:25:54;;;;;;;;;;;;;;;;;;5048944;28;83035;-63
2022/02/26 19:28:21;;;;;;;;;;;;;;;;;;5051931;28;82565;-64
2022/02/26 19:30:48;;;;;;;;;;;;;;;;;;5049134;28;81811;-64
2022/02/26 19:33:16;;;;;;;;;;;;;;;;;;5049166;28;82917;-63
2022/02/26 19:35:42;;;;;;;;;;;;;;;;;;5049022;28;82379;-64
2022/02/26 19:38:07;;;;;;;;;;;;;;;;;;5049190;28;81811;-63
2022/02/26 19:40:33;;;;;;;;;;;;;;;;;;5049130;28;81778;-64
2022/02/26 19:42:59;;;;;;;;;;;;;;;;;;5049585;28;81700;-64
2022/02/26 19:45:25;;;;;;;;;;;;;;;;;;5049581;28;82391;-64
2022/02/26 19:47:52;;;;;;;;;;;;;;;;;;5049445;28;81758;-63
2022/02/26 19:50:18;;;;;;;;;;;;;;;;;;5050921;28;84422;-63
2022/02/26 19:52:44;;;;;;;;;;;;;;;;;;5049231;28;82281;-64
2022/02/26 19:55:10;;;;;;;;;;;;;;;;;;5048712;28;83493;-64
2022/02/26 19:57:37;;;;;;;;;;;;;;;;;;5049497;27;81800;-64
2022/02/26 20:00:06;;;;;;;;;;;;;;;;;;5052631;28;81746;-65
2022/02/26 20:02:31;;;;;;;;;;;;;;;;;;5052077;28;83343;-63
2022/02/26 20:04:59;;;;;;;;;;;;;;;;;;5052543;28;81784;-64
2022/02/26 20:07:25;;;;;;;;;;;;;;;;;;5052737;28;81478;-62
2022/02/26 20:09:51;;;;;;;;;;;;;;;;;;5052014;28;83500;-64
2022/02/26 20:12:17;;;;;;;;;;;;;;;;;;5054718;28;81796;-64
2022/02/26 20:14:43;;;;;;;;;;;;;;;;;;5051432;28;83579;-64
2022/02/26 20:17:09;;;;;;;;;;;;;;;;;;5052221;28;81714;-65
2022/02/26 20:19:35;;;;;;;;;;;;;;;;;;5052480;28;81754;-64
2022/02/26 20:22:01;;;;;;;;;;;;;;;;;;5052088;28;82339;-64
2022/02/26 20:24:27;;;;;;;;;;;;;;;;;;5052047;28;81804;-64
2022/02/26 20:26:54;;;;;;;;;;;;;;;;;;5051996;28;82554;-62
2022/02/26 20:29:20;;;;;;;;;;;;;;;;;;5051776;28;83434;-65
2022/02/26 20:31:46;;;;;;;;;;;;;;;;;;5052429;28;81058;-64
2022/02/26 20:34:12;;;;;;;;;;;;;;;;;;5054845;28;81760;-64
2022/02/26 20:36:43;;;;;;;;;;;;;;;;;;5051871;28;81906;-64
2022/02/26 20:39:09;;;;;;;;;;;;;;;;;;5051289;28;82720;-64
2022/02/26 20:41:35;;;;;;;;;;;;;;;;;;5051821;28;82345;-64
2022/02/26 20:44:01;;;;;;;;;;;;;;;;;;5051734;28;81958;-64
2022/02/26 20:46:27;;;;;;;;;;;;;;;;;;5051787;28;82461;-64
2022/02/26 20:48:53;;;;;;;;;;;;;;;;;;5051736;28;82524;-64
2022/02/26 20:51:19;;;;;;;;;;;;;;;;;;5052030;28;81887;-64
2022/02/26 20:53:45;;;;;;;;;;;;;;;;;;5051962;28;81868;-63
2022/02/26 20:56:10;;;;;;;;;;;;;;;;;;5054827;28;81720;-64
2022/02/26 20:58:37;;;;;;;;;;;;;;;;;;5051590;28;81844;-64
2022/02/26 21:01:03;;;;;;;;;;;;;;;;;;5051213;28;83502;-64
2022/02/26 21:03:29;;;;;;;;;;;;;;;;;;5050944;28;82735;-64
2022/02/26 21:05:55;;;;;;;;;;;;;;;;;;5051615;28;82932;-64
2022/02/26 21:08:21;;;;;;;;;;;;;;;;;;5050971;28;81804;-63
2022/02/26 21:10:47;;;;;;;;;;;;;;;;;;5050731;28;81784;-64
2022/02/26 21:13:12;;;;;;;;;;;;;;;;;;5051224;28;81865;-63
2022/02/26 21:15:38;;;;;;;;;;;;;;;;;;5051204;28;82346;-64
2022/02/26 21:18:04;;;;;;;;;;;;;;;;;;5054194;28;82201;-64
2022/02/26 21:20:30;;;;;;;;;;;;;;;;;;5051716;28;82164;-64
2022/02/26 21:22:56;;;;;;;;;;;;;;;;;;5051347;28;81792;-64
2022/02/26 21:25:22;;;;;;;;;;;;;;;;;;5051063;28;82546;-65
2022/02/26 21:27:48;;;;;;;;;;;;;;;;;;5050346;28;83820;-64
2022/02/26 21:30:14;;;;;;;;;;;;;;;;;;5051281;28;81817;-64
2022/02/26 21:32:40;;;;;;;;;;;;;;;;;;5050974;28;82412;-64
2022/02/26 21:35:07;;;;;;;;;;;;;;;;;;5050917;28;81897;-64
2022/02/26 21:37:33;;;;;;;;;;;;;;;;;;5053819;28;81776;-63
2022/02/26 21:39:59;;;;;;;;;;;;;;;;;;5050937;28;82378;-64
2022/02/26 21:42:25;;;;;;;;;;;;;;;;;;5050884;28;81984;-64
2022/02/26 21:44:51;;;;;;;;;;;;;;;;;;5051520;28;81210;-64
2022/02/26 21:47:17;;;;;;;;;;;;;;;;;;5050786;28;82429;-64
2022/02/26 21:49:43;;;;;;;;;;;;;;;;;;5050962;28;81773;-62
2022/02/26 21:52:09;;;;;;;;;;;;;;;;;;5049980;28;82778;-63
2022/02/26 21:54:35;;;;;;;;;;;;;;;;;;5050373;28;82349;-64
2022/02/26 21:57:01;;;;;;;;;;;;;;;;;;5050879;28;81814;-63
2022/02/26 21:59:27;;;;;;;;;;;;;;;;;;5053203;28;82831;-64
2022/02/26 22:01:53;;;;;;;;;;;;;;;;;;5050546;28;81842;-64
2022/02/26 22:04:19;;;;;;;;;;;;;;;;;;5050473;28;82258;-63
2022/02/26 22:06:46;;;;;;;;;;;;;;;;;;5050274;28;83790;-64
2022/02/26 22:09:12;;;;;;;;;;;;;;;;;;5051104;28;81085;-64
2022/02/26 22:11:38;;;;;;;;;;;;;;;;;;5050282;28;81985;-64
2022/02/26 22:14:04;;;;;;;;;;;;;;;;;;5050249;28;83649;-64
2022/02/26 22:16:30;;;;;;;;;;;;;;;;;;5049572;28;82744;-64
2022/02/26 22:18:55;;;;;;;;;;;;;;;;;;5050550;28;81945;-64
2022/02/26 22:21:22;;;;;;;;;;;;;;;;;;5052444;27;82476;-64
2022/02/26 22:23:50;;;;;;;;;;;;;;;;;;5050413;28;81775;-64
2022/02/26 22:26:16;;;;;;;;;;;;;;;;;;5049912;28;83383;-64
2022/02/26 22:28:42;;;;;;;;;;;;;;;;;;5050349;28;81784;-64
2022/02/26 22:31:07;;;;;;;;;;;;;;;;;;5049972;28;81685;-64
2022/02/26 22:33:33;;;;;;;;;;;;;;;;;;5050499;28;81823;-64
2022/02/26 22:35:59;;;;;;;;;;;;;;;;;;5050403;28;81786;-64
2022/02/26 22:38:25;;;;;;;;;;;;;;;;;;5050331;28;81768;-64
2022/02/26 22:40:51;;;;;;;;;;;;;;;;;;5048976;28;84079;-64
2022/02/26 22:43:17;;;;;;;;;;;;;;;;;;5052797;28;81851;-64
2022/02/26 22:45:43;;;;;;;;;;;;;;;;;;5049661;28;82577;-65
2022/02/26 22:48:09;;;;;;;;;;;;;;;;;;5049785;28;81798;-65
2022/02/26 22:50:35;;;;;;;;;;;;;;;;;;5049814;28;81776;-63
2022/02/26 22:53:01;;;;;;;;;;;;;;;;;;5049427;28;83664;-64
2022/02/26 22:55:27;;;;;;;;;;;;;;;;;;5049678;28;81782;-64
2022/02/26 22:57:52;;;;;;;;;;;;;;;;;;5050466;28;81343;-64
2022/02/26 23:00:19;;;;;;;;;;;;;;;;;;5049601;28;83856;-64
2022/02/26 23:02:45;;;;;;;;;;;;;;;;;;5049545;28;81820;-64
2022/02/26 23:05:11;;;;;;;;;;;;;;;;;;5051840;28;83189;-65
2022/02/26 23:07:37;;;;;;;;;;;;;;;;;;5049470;28;81780;-65
2022/02/26 23:10:03;;;;;;;;;;;;;;;;;;5049905;28;81868;-65
2022/02/26 23:12:29;;;;;;;;;;;;;;;;;;5048934;28;83408;-65
2022/02/26 23:14:55;;;;;;;;;;;;;;;;;;5049771;28;81806;-64
2022/02/26 23:17:20;;;;;;;;;;;;;;;;;;5049403;28;82581;-63
2022/02/26 23:19:46;;;;;;;;;;;;;;;;;;5049391;28;83747;-63
2022/02/26 23:22:12;;;;;;;;;;;;;;;;;;5049837;28;81083;-63
2022/02/26 23:24:38;;;;;;;;;;;;;;;;;;5049425;28;81865;-64
2022/02/26 23:27:04;;;;;;;;;;;;;;;;;;5051990;28;82891;-64
2022/02/26 23:29:30;;;;;;;;;;;;;;;;;;5048676;28;82709;-64
2022/02/26 23:31:56;;;;;;;;;;;;;;;;;;5049110;27;83468;-64
2022/02/26 23:34:22;;;;;;;;;;;;;;;;;;5052417;28;81897;-65
2022/02/26 23:36:48;;;;;;;;;;;;;;;;;;5053183;28;81941;-64
2022/02/26 23:39:13;;;;;;;;;;;;;;;;;;5052866;28;82387;-64
2022/02/26 23:41:39;;;;;;;;;;;;;;;;;;5052983;28;82240;-64
2022/02/26 23:44:05;;;;;;;;;;;;;;;;;;5052866;28;82622;-65
2022/02/26 23:46:31;;;;;;;;;;;;;;;;;;5055631;28;81793;-64
2022/02/26 23:48:57;;;;;;;;;;;;;;;;;;5052612;28;81876;-64
2022/02/26 23:51:24;;;;;;;;;;;;;;;;;;5052562;28;82608;-65
2022/02/26 23:53:49;;;;;;;;;;;;;;;;;;5051993;28;82800;-64
2022/02/26 23:56:15;;;;;;;;;;;;;;;;;;5052615;28;83592;-64
2022/02/26 23:58:41;;;;;;;;;;;;;;;;;;5052290;28;83541;-64
